createdAt,value
2018-09-23T00:00:00.852Z,13.07
2018-09-23T00:05:03.032Z,13.00
2018-09-23T00:10:05.637Z,12.99
2018-09-23T00:15:08.139Z,13.05
2018-09-23T00:20:10.457Z,13.08
2018-09-23T00:25:12.606Z,13.05
2018-09-23T00:30:14.799Z,13.07
2018-09-23T00:35:16.991Z,13.05
2018-09-23T00:40:19.137Z,13.00
2018-09-23T00:45:21.290Z,13.04
2018-09-23T00:50:23.459Z,13.04
2018-09-23T00:55:25.567Z,13.13
2018-09-23T01:00:27.704Z,13.15
2018-09-23T01:05:29.822Z,13.08
2018-09-23T01:10:31.952Z,13.04
2018-09-23T01:15:34.149Z,13.01
2018-09-23T01:20:36.294Z,12.85
2018-09-23T01:25:38.432Z,12.86
2018-09-23T01:30:40.595Z,12.87
2018-09-23T01:35:42.723Z,12.91
2018-09-23T01:40:44.847Z,13.00
2018-09-23T01:45:47.003Z,13.04
2018-09-23T01:50:49.139Z,13.11
2018-09-23T01:55:51.267Z,13.13
2018-09-23T02:00:53.407Z,13.15
2018-09-23T02:05:55.536Z,13.24
2018-09-23T02:10:57.655Z,13.11
2018-09-23T02:15:59.839Z,13.10
2018-09-23T02:21:02.058Z,13.10
2018-09-23T02:26:04.162Z,13.10
2018-09-23T02:31:06.407Z,13.08
2018-09-23T02:36:08.564Z,13.07
2018-09-23T02:41:10.711Z,13.06
2018-09-23T02:46:12.862Z,13.04
2018-09-23T02:51:15.017Z,12.98
2018-09-23T02:56:17.130Z,12.94
2018-09-23T03:01:19.279Z,12.98
2018-09-23T03:06:21.393Z,13.02
2018-09-23T03:11:23.563Z,13.02
2018-09-23T03:16:25.733Z,13.06
2018-09-23T03:21:27.867Z,12.97
2018-09-23T03:26:30.009Z,12.98
2018-09-23T03:31:32.139Z,13.01
2018-09-23T03:36:34.281Z,12.98
2018-09-23T03:41:36.426Z,12.92
2018-09-23T03:46:38.645Z,12.92
2018-09-23T03:51:40.804Z,12.92
2018-09-23T03:56:43.610Z,12.94
2018-09-23T04:01:45.737Z,13.00
2018-09-23T04:06:47.867Z,13.08
2018-09-23T04:11:49.969Z,13.02
2018-09-23T04:16:52.133Z,12.93
2018-09-23T04:21:54.264Z,12.84
2018-09-23T04:26:56.430Z,12.82
2018-09-23T04:31:58.580Z,12.73
2018-09-23T04:37:00.701Z,12.74
2018-09-23T04:42:02.818Z,12.81
2018-09-23T04:47:04.902Z,12.89
2018-09-23T04:52:06.990Z,12.86
2018-09-23T04:57:09.115Z,12.89
2018-09-23T05:02:11.253Z,12.92
2018-09-23T05:07:13.377Z,12.89
2018-09-23T05:12:15.513Z,12.88
2018-09-23T05:17:17.639Z,12.98
2018-09-23T05:22:19.762Z,13.07
2018-09-23T05:27:21.882Z,13.10
2018-09-23T05:32:24.047Z,13.12
2018-09-23T05:37:26.188Z,13.11
2018-09-23T05:42:28.397Z,13.12
2018-09-23T05:47:30.515Z,13.14
2018-09-23T05:52:32.636Z,13.26
2018-09-23T05:57:34.793Z,13.27
2018-09-23T06:02:36.958Z,13.26
2018-09-23T06:07:39.116Z,13.28
2018-09-23T06:12:41.281Z,13.22
2018-09-23T06:17:43.433Z,13.23
2018-09-23T06:22:45.791Z,13.20
2018-09-23T06:27:48.570Z,13.26
2018-09-23T06:32:50.719Z,13.26
2018-09-23T06:37:53.018Z,13.30
2018-09-23T06:42:55.150Z,13.43
2018-09-23T06:47:57.871Z,13.49
2018-09-23T06:53:00.030Z,13.51
2018-09-23T06:58:02.171Z,13.57
2018-09-23T07:03:05.073Z,13.61
2018-09-23T07:08:07.288Z,13.71
2018-09-23T07:13:09.472Z,13.88
2018-09-23T07:18:11.643Z,14.01
2018-09-23T07:23:13.762Z,14.04
2018-09-23T07:28:15.888Z,14.19
2018-09-23T07:33:18.047Z,14.27
2018-09-23T07:38:20.199Z,14.39
2018-09-23T07:43:22.471Z,14.47
2018-09-23T07:48:24.667Z,14.56
2018-09-23T07:53:26.843Z,14.66
2018-09-23T07:58:29.000Z,14.72
2018-09-23T08:03:31.264Z,14.72
2018-09-23T08:08:33.384Z,14.66
2018-09-23T08:13:35.745Z,14.73
2018-09-23T08:18:37.786Z,14.68
2018-09-23T08:23:39.963Z,14.71
2018-09-23T08:28:42.146Z,14.72
2018-09-23T08:33:44.330Z,14.71
2018-09-23T08:38:46.930Z,14.80
2018-09-23T08:43:49.076Z,14.81
2018-09-23T08:48:51.368Z,14.93
2018-09-23T08:53:53.507Z,14.98
2018-09-23T08:58:55.752Z,14.98
2018-09-23T09:03:57.923Z,15.03
2018-09-23T09:09:00.123Z,15.20
2018-09-23T09:14:02.320Z,15.20
2018-09-23T09:19:04.595Z,15.30
2018-09-23T09:24:06.865Z,15.35
2018-09-23T09:29:09.258Z,15.28
2018-09-23T09:34:11.448Z,15.38
2018-09-23T09:39:13.632Z,15.49
2018-09-23T09:44:15.825Z,15.54
2018-09-23T09:49:18.000Z,15.65
2018-09-23T09:54:20.664Z,15.80
2018-09-23T09:59:22.947Z,15.87
2018-09-23T10:04:25.161Z,16.01
2018-09-23T10:09:27.419Z,16.09
2018-09-23T10:14:29.609Z,16.05
2018-09-23T10:19:31.743Z,16.10
2018-09-23T10:24:33.901Z,16.08
2018-09-23T10:29:36.111Z,16.02
2018-09-23T10:34:38.635Z,16.30
2018-09-23T10:39:40.853Z,16.59
2018-09-23T10:44:43.090Z,16.73
2018-09-23T10:49:45.292Z,16.95
2018-09-23T10:54:47.512Z,16.86
2018-09-23T10:59:49.729Z,16.92
2018-09-23T11:04:51.972Z,16.81
2018-09-23T11:09:54.189Z,16.68
2018-09-23T11:14:56.375Z,16.64
2018-09-23T11:19:58.605Z,16.50
2018-09-23T11:25:00.863Z,16.21
2018-09-23T11:30:03.870Z,16.29
2018-09-23T11:35:06.310Z,16.10
2018-09-23T11:40:08.635Z,16.10
2018-09-23T11:45:10.747Z,15.92
2018-09-23T11:50:12.923Z,15.97
2018-09-23T11:55:15.145Z,16.09
2018-09-23T12:00:17.701Z,16.04
2018-09-23T12:05:19.904Z,15.98
2018-09-23T12:10:22.330Z,15.92
2018-09-23T12:15:24.450Z,15.85
2018-09-23T12:20:26.611Z,15.72
2018-09-23T12:25:28.858Z,15.66
2018-09-23T12:30:30.974Z,15.67
2018-09-23T12:35:33.205Z,15.55
2018-09-23T12:40:35.384Z,15.50
2018-09-23T12:45:37.600Z,15.50
2018-09-23T12:50:39.777Z,15.57
2018-09-23T12:55:41.981Z,15.70
2018-09-23T13:00:44.192Z,15.71
2018-09-23T13:05:46.371Z,15.78
2018-09-23T13:10:55.471Z,15.60
2018-09-23T13:15:57.664Z,15.35
2018-09-23T13:20:59.843Z,15.17
2018-09-23T13:26:02.051Z,15.16
2018-09-23T13:31:04.276Z,15.13
2018-09-23T13:36:06.513Z,14.98
2018-09-23T13:41:08.807Z,14.83
2018-09-23T13:46:10.969Z,14.80
2018-09-23T13:51:13.234Z,14.80
2018-09-23T13:56:15.600Z,14.79
2018-09-23T14:01:17.798Z,14.75
2018-09-23T14:06:20.000Z,14.58
2018-09-23T14:11:22.246Z,14.57
2018-09-23T14:16:24.460Z,14.61
2018-09-23T14:21:26.800Z,14.55
2018-09-23T14:26:29.006Z,14.50
2018-09-23T14:31:31.219Z,14.48
2018-09-23T14:36:33.488Z,14.38
2018-09-23T14:41:35.797Z,14.39
2018-09-23T14:46:37.980Z,14.42
2018-09-23T14:51:40.197Z,14.37
2018-09-23T14:56:42.454Z,14.35
2018-09-23T15:01:44.696Z,14.34
2018-09-23T15:06:46.902Z,14.34
2018-09-23T15:11:49.179Z,14.36
2018-09-23T15:16:51.384Z,14.88
2018-09-23T15:21:53.659Z,15.47
2018-09-23T15:26:55.822Z,16.05
2018-09-23T15:31:58.135Z,16.36
2018-09-23T15:37:00.370Z,16.50
2018-09-23T15:42:02.584Z,16.61
2018-09-23T15:47:05.183Z,16.71
2018-09-23T15:52:07.468Z,16.72
2018-09-23T15:57:09.703Z,16.75
2018-09-23T16:02:11.961Z,16.77
2018-09-23T16:07:14.278Z,16.78
2018-09-23T16:12:16.557Z,16.75
2018-09-23T16:17:18.852Z,16.79
2018-09-23T16:22:21.198Z,16.85
2018-09-23T16:27:23.493Z,16.79
2018-09-23T16:32:25.769Z,16.71
2018-09-23T16:37:28.106Z,16.61
2018-09-23T16:42:30.909Z,16.54
2018-09-23T16:47:33.214Z,16.48
2018-09-23T16:52:35.493Z,16.27
2018-09-23T16:57:37.775Z,16.24
2018-09-23T17:02:40.115Z,16.18
2018-09-23T17:07:42.493Z,16.26
2018-09-23T17:12:44.828Z,16.19
2018-09-23T17:17:47.271Z,16.15
2018-09-23T17:22:49.778Z,16.03
2018-09-23T17:27:52.982Z,15.98
2018-09-23T17:32:56.249Z,16.00
2018-09-23T17:37:59.867Z,15.94
2018-09-23T17:43:02.549Z,15.89
2018-09-23T17:48:05.786Z,15.79
2018-09-23T17:53:08.309Z,15.68
2018-09-23T17:58:11.151Z,15.38
2018-09-23T18:03:14.474Z,14.78
2018-09-23T18:08:17.138Z,14.33
2018-09-23T18:13:20.083Z,14.04
2018-09-23T18:18:22.961Z,13.90
2018-09-23T18:23:25.858Z,13.78
2018-09-23T18:28:28.787Z,13.64
2018-09-23T18:33:31.449Z,13.50
2018-09-23T18:38:35.226Z,13.44
2018-09-23T18:43:39.294Z,13.37
2018-09-23T18:48:42.340Z,13.33
2018-09-23T18:53:51.019Z,13.23
2018-09-23T18:58:54.127Z,13.21
2018-09-23T19:03:57.656Z,13.13
2018-09-23T19:09:01.391Z,13.15
2018-09-23T19:14:05.017Z,13.09
2018-09-23T19:19:09.554Z,13.10
2018-09-23T19:24:12.464Z,13.04
2018-09-23T19:29:15.767Z,13.01
2018-09-23T19:34:18.656Z,12.88
2018-09-23T19:39:21.749Z,12.87
2018-09-23T19:44:24.568Z,12.74
2018-09-23T19:49:27.512Z,12.68
2018-09-23T19:54:30.304Z,12.65
2018-09-23T19:59:34.010Z,12.56
2018-09-23T20:04:36.914Z,12.57
2018-09-23T20:09:39.628Z,12.55
2018-09-23T20:14:42.695Z,12.53
2018-09-23T20:19:45.304Z,12.52
2018-09-23T20:24:48.331Z,12.52
2018-09-23T20:29:50.688Z,12.42
2018-09-23T20:34:54.038Z,12.39
2018-09-23T20:39:56.316Z,12.36
2018-09-23T20:44:58.638Z,12.38
2018-09-23T20:50:00.890Z,12.30
2018-09-23T20:55:03.229Z,12.29
2018-09-23T21:00:05.506Z,12.32
2018-09-23T21:05:07.715Z,12.29
2018-09-23T21:10:09.961Z,12.28
2018-09-23T21:15:12.192Z,12.15
2018-09-23T21:20:14.311Z,12.09
2018-09-23T21:25:16.537Z,12.14
2018-09-23T21:30:18.698Z,12.13
2018-09-23T21:35:20.890Z,12.16
2018-09-23T21:40:23.075Z,12.15
2018-09-23T21:45:25.233Z,12.11
2018-09-23T21:50:27.358Z,12.10
2018-09-23T21:55:29.525Z,12.15
2018-09-23T22:00:37.383Z,12.22
2018-09-23T22:05:39.772Z,12.27
2018-09-23T22:10:42.607Z,12.31
2018-09-23T22:15:44.784Z,12.32
2018-09-23T22:20:46.961Z,12.23
2018-09-23T22:25:49.105Z,12.23
2018-09-23T22:30:51.258Z,12.17
2018-09-23T22:35:53.407Z,12.23
2018-09-23T22:40:55.594Z,12.17
2018-09-23T22:45:57.736Z,12.14
2018-09-23T22:51:01.369Z,12.08
2018-09-23T22:56:03.643Z,12.06
2018-09-23T23:01:05.827Z,12.04
2018-09-23T23:06:07.949Z,11.99
2018-09-23T23:11:10.155Z,11.98
2018-09-23T23:16:12.279Z,12.00
2018-09-23T23:21:14.427Z,11.98
2018-09-23T23:26:16.580Z,11.99
2018-09-23T23:31:18.706Z,11.96
2018-09-23T23:36:20.819Z,11.93
2018-09-23T23:41:23.018Z,11.92
2018-09-23T23:46:25.199Z,11.89
2018-09-23T23:51:27.383Z,11.90
2018-09-23T23:56:29.775Z,11.87
